Aviation Digital Data Service (ADDS)

Output produced by TAFs form (1650 UTC 28 November 2014)
found at http://aviationweather.gov/adds/tafs/
 
KABQ 281131Z 2812/2912 VRB05KT P6SM BKN250 
     FM281800 18005KT P6SM SCT250 
     FM290200 12005KT P6SM SKC